sensor_id;sensor_type;location;lat;lon;timestamp;temperature;humidity
9497;DHT22;4786;51.270;4.456;2024-03-25T00:01:27;5.80;99.90
9497;DHT22;4786;51.270;4.456;2024-03-25T00:03:52;5.80;99.90
9497;DHT22;4786;51.270;4.456;2024-03-25T00:06:18;5.70;99.90
9497;DHT22;4786;51.270;4.456;2024-03-25T00:08:43;5.70;99.90
9497;DHT22;4786;51.270;4.456;2024-03-25T00:11:09;5.70;99.90
9497;DHT22;4786;51.270;4.456;2024-03-25T00:13:35;5.70;99.90
9497;DHT22;4786;51.270;4.456;2024-03-25T00:16:00;5.60;99.90
9497;DHT22;4786;51.270;4.456;2024-03-25T00:18:26;5.60;99.90
9497;DHT22;4786;51.270;4.456;2024-03-25T00:20:51;5.60;99.90
9497;DHT22;4786;51.270;4.456;2024-03-25T00:23:17;5.60;99.90
9497;DHT22;4786;51.270;4.456;2024-03-25T00:25:43;5.60;99.90
9497;DHT22;4786;51.270;4.456;2024-03-25T00:28:09;5.60;99.90
9497;DHT22;4786;51.270;4.456;2024-03-25T00:30:34;5.60;99.90
9497;DHT22;4786;51.270;4.456;2024-03-25T00:33:00;5.60;99.90
9497;DHT22;4786;51.270;4.456;2024-03-25T00:35:26;5.50;99.90
9497;DHT22;4786;51.270;4.456;2024-03-25T00:37:51;5.50;99.90
9497;DHT22;4786;51.270;4.456;2024-03-25T00:40:17;5.40;99.90
9497;DHT22;4786;51.270;4.456;2024-03-25T00:42:43;5.40;99.90
9497;DHT22;4786;51.270;4.456;2024-03-25T00:45:09;5.40;99.90
9497;DHT22;4786;51.270;4.456;2024-03-25T00:47:34;5.30;99.90
9497;DHT22;4786;51.270;4.456;2024-03-25T00:50:00;5.30;99.90
9497;DHT22;4786;51.270;4.456;2024-03-25T00:52:26;5.30;99.90
9497;DHT22;4786;51.270;4.456;2024-03-25T00:54:51;5.20;99.90
9497;DHT22;4786;51.270;4.456;2024-03-25T00:57:17;5.30;99.90
9497;DHT22;4786;51.270;4.456;2024-03-25T00:59:44;5.30;99.90
9497;DHT22;4786;51.270;4.456;2024-03-25T01:02:09;5.30;99.90
9497;DHT22;4786;51.270;4.456;2024-03-25T01:04:35;5.30;99.90
9497;DHT22;4786;51.270;4.456;2024-03-25T01:07:00;5.20;99.90
9497;DHT22;4786;51.270;4.456;2024-03-25T01:09:26;5.20;99.90
9497;DHT22;4786;51.270;4.456;2024-03-25T01:11:52;5.10;99.90
9497;DHT22;4786;51.270;4.456;2024-03-25T01:14:17;5.10;99.90
9497;DHT22;4786;51.270;4.456;2024-03-25T01:16:43;5.20;99.90
9497;DHT22;4786;51.270;4.456;2024-03-25T01:19:09;5.20;99.90
9497;DHT22;4786;51.270;4.456;2024-03-25T01:21:34;5.20;99.90
9497;DHT22;4786;51.270;4.456;2024-03-25T01:24:00;5.10;99.90
9497;DHT22;4786;51.270;4.456;2024-03-25T01:26:26;5.10;99.90
9497;DHT22;4786;51.270;4.456;2024-03-25T01:28:52;5.10;99.90
9497;DHT22;4786;51.270;4.456;2024-03-25T01:31:18;5.10;99.90
9497;DHT22;4786;51.270;4.456;2024-03-25T01:33:45;5.10;99.90
9497;DHT22;4786;51.270;4.456;2024-03-25T01:36:10;5.10;99.90
9497;DHT22;4786;51.270;4.456;2024-03-25T01:38:42;5.10;99.90
9497;DHT22;4786;51.270;4.456;2024-03-25T01:41:09;5.10;99.90
9497;DHT22;4786;51.270;4.456;2024-03-25T01:43:35;5.10;99.90
9497;DHT22;4786;51.270;4.456;2024-03-25T01:46:01;5.00;99.90
9497;DHT22;4786;51.270;4.456;2024-03-25T01:48:27;5.00;99.90
9497;DHT22;4786;51.270;4.456;2024-03-25T01:50:53;5.00;99.90
9497;DHT22;4786;51.270;4.456;2024-03-25T01:53:19;4.90;99.90
9497;DHT22;4786;51.270;4.456;2024-03-25T01:55:45;4.90;99.90
9497;DHT22;4786;51.270;4.456;2024-03-25T01:58:12;5.00;99.90
9497;DHT22;4786;51.270;4.456;2024-03-25T02:00:38;4.90;99.90
9497;DHT22;4786;51.270;4.456;2024-03-25T02:03:04;4.90;99.90
9497;DHT22;4786;51.270;4.456;2024-03-25T02:05:31;4.80;99.90
9497;DHT22;4786;51.270;4.456;2024-03-25T02:07:57;4.80;99.90
9497;DHT22;4786;51.270;4.456;2024-03-25T02:10:23;4.80;99.90
9497;DHT22;4786;51.270;4.456;2024-03-25T02:12:49;4.80;99.90
9497;DHT22;4786;51.270;4.456;2024-03-25T02:15:15;4.80;99.90
9497;DHT22;4786;51.270;4.456;2024-03-25T02:17:42;4.70;99.90
9497;DHT22;4786;51.270;4.456;2024-03-25T02:20:08;4.90;99.90
9497;DHT22;4786;51.270;4.456;2024-03-25T02:22:35;4.70;99.90
9497;DHT22;4786;51.270;4.456;2024-03-25T02:25:06;4.70;99.90
9497;DHT22;4786;51.270;4.456;2024-03-25T02:27:39;4.70;99.90
9497;DHT22;4786;51.270;4.456;2024-03-25T02:30:09;4.70;99.90
9497;DHT22;4786;51.270;4.456;2024-03-25T02:32:38;4.70;99.90
9497;DHT22;4786;51.270;4.456;2024-03-25T02:35:06;4.60;99.90
9497;DHT22;4786;51.270;4.456;2024-03-25T02:37:33;4.60;99.90
9497;DHT22;4786;51.270;4.456;2024-03-25T02:40:01;4.50;99.90
9497;DHT22;4786;51.270;4.456;2024-03-25T02:42:29;4.40;99.90
9497;DHT22;4786;51.270;4.456;2024-03-25T02:44:55;4.50;99.90
9497;DHT22;4786;51.270;4.456;2024-03-25T02:47:21;4.40;99.90
9497;DHT22;4786;51.270;4.456;2024-03-25T02:49:47;4.40;99.90
9497;DHT22;4786;51.270;4.456;2024-03-25T02:52:13;4.40;99.90
9497;DHT22;4786;51.270;4.456;2024-03-25T02:54:38;4.30;99.90
9497;DHT22;4786;51.270;4.456;2024-03-25T02:57:04;4.40;99.90
9497;DHT22;4786;51.270;4.456;2024-03-25T02:59:30;4.40;99.90
9497;DHT22;4786;51.270;4.456;2024-03-25T03:01:56;4.40;99.90
9497;DHT22;4786;51.270;4.456;2024-03-25T03:04:21;4.40;99.90
9497;DHT22;4786;51.270;4.456;2024-03-25T03:06:47;4.30;99.90
9497;DHT22;4786;51.270;4.456;2024-03-25T03:09:12;4.30;99.90
9497;DHT22;4786;51.270;4.456;2024-03-25T03:11:38;4.30;99.90
9497;DHT22;4786;51.270;4.456;2024-03-25T03:14:04;4.30;99.90
9497;DHT22;4786;51.270;4.456;2024-03-25T03:16:30;4.30;99.90
9497;DHT22;4786;51.270;4.456;2024-03-25T03:18:55;4.20;99.90
9497;DHT22;4786;51.270;4.456;2024-03-25T03:21:21;4.20;99.90
9497;DHT22;4786;51.270;4.456;2024-03-25T03:23:47;4.10;99.90
9497;DHT22;4786;51.270;4.456;2024-03-25T03:26:12;4.00;99.90
9497;DHT22;4786;51.270;4.456;2024-03-25T03:28:39;4.10;99.90
9497;DHT22;4786;51.270;4.456;2024-03-25T03:31:05;4.10;99.90
9497;DHT22;4786;51.270;4.456;2024-03-25T03:33:31;3.90;99.90
9497;DHT22;4786;51.270;4.456;2024-03-25T03:35:57;4.00;99.90
9497;DHT22;4786;51.270;4.456;2024-03-25T03:38:22;4.00;99.90
9497;DHT22;4786;51.270;4.456;2024-03-25T03:41:02;4.00;99.90
9497;DHT22;4786;51.270;4.456;2024-03-25T03:43:29;3.90;99.90
9497;DHT22;4786;51.270;4.456;2024-03-25T03:45:54;3.90;99.90
9497;DHT22;4786;51.270;4.456;2024-03-25T03:48:20;3.90;99.90
9497;DHT22;4786;51.270;4.456;2024-03-25T03:50:46;4.00;99.90
9497;DHT22;4786;51.270;4.456;2024-03-25T03:53:12;4.00;99.90
9497;DHT22;4786;51.270;4.456;2024-03-25T03:55:37;3.90;99.90
9497;DHT22;4786;51.270;4.456;2024-03-25T03:58:04;4.00;99.90
9497;DHT22;4786;51.270;4.456;2024-03-25T04:00:33;3.90;99.90
9497;DHT22;4786;51.270;4.456;2024-03-25T04:02:59;3.80;99.90
9497;DHT22;4786;51.270;4.456;2024-03-25T04:05:29;3.80;99.90
9497;DHT22;4786;51.270;4.456;2024-03-25T04:07:55;3.80;99.90
9497;DHT22;4786;51.270;4.456;2024-03-25T04:10:20;3.80;99.90
9497;DHT22;4786;51.270;4.456;2024-03-25T04:12:46;3.70;99.90
9497;DHT22;4786;51.270;4.456;2024-03-25T04:15:12;3.80;99.90
9497;DHT22;4786;51.270;4.456;2024-03-25T04:17:46;3.80;99.90
9497;DHT22;4786;51.270;4.456;2024-03-25T04:20:14;3.80;99.90
9497;DHT22;4786;51.270;4.456;2024-03-25T04:22:43;3.90;99.90
9497;DHT22;4786;51.270;4.456;2024-03-25T04:25:10;3.80;99.90
9497;DHT22;4786;51.270;4.456;2024-03-25T04:27:38;3.80;99.90
9497;DHT22;4786;51.270;4.456;2024-03-25T04:30:05;3.80;99.90
9497;DHT22;4786;51.270;4.456;2024-03-25T04:32:32;3.80;99.90
9497;DHT22;4786;51.270;4.456;2024-03-25T04:34:58;3.80;99.90
9497;DHT22;4786;51.270;4.456;2024-03-25T04:37:23;3.80;99.90
9497;DHT22;4786;51.270;4.456;2024-03-25T04:39:49;3.70;99.90
9497;DHT22;4786;51.270;4.456;2024-03-25T04:42:15;3.70;99.90
9497;DHT22;4786;51.270;4.456;2024-03-25T04:44:40;3.70;99.90
9497;DHT22;4786;51.270;4.456;2024-03-25T04:47:06;3.70;99.90
9497;DHT22;4786;51.270;4.456;2024-03-25T04:49:32;3.70;99.90
9497;DHT22;4786;51.270;4.456;2024-03-25T04:51:57;3.70;99.90
9497;DHT22;4786;51.270;4.456;2024-03-25T04:54:23;3.80;99.90
9497;DHT22;4786;51.270;4.456;2024-03-25T04:56:49;3.80;99.90
9497;DHT22;4786;51.270;4.456;2024-03-25T04:59:15;3.80;99.90
9497;DHT22;4786;51.270;4.456;2024-03-25T05:01:41;4.00;99.90
9497;DHT22;4786;51.270;4.456;2024-03-25T05:04:06;3.80;99.90
9497;DHT22;4786;51.270;4.456;2024-03-25T05:06:35;3.90;99.90
9497;DHT22;4786;51.270;4.456;2024-03-25T05:09:00;3.90;99.90
9497;DHT22;4786;51.270;4.456;2024-03-25T05:11:26;3.90;99.90
9497;DHT22;4786;51.270;4.456;2024-03-25T05:13:52;4.00;99.90
9497;DHT22;4786;51.270;4.456;2024-03-25T05:16:17;3.90;99.90
9497;DHT22;4786;51.270;4.456;2024-03-25T05:18:43;4.00;99.90
9497;DHT22;4786;51.270;4.456;2024-03-25T05:21:08;3.90;99.90
9497;DHT22;4786;51.270;4.456;2024-03-25T05:23:35;3.90;99.90
9497;DHT22;4786;51.270;4.456;2024-03-25T05:26:00;4.00;99.90
9497;DHT22;4786;51.270;4.456;2024-03-25T05:28:26;4.00;99.90
9497;DHT22;4786;51.270;4.456;2024-03-25T05:30:52;4.00;99.90
9497;DHT22;4786;51.270;4.456;2024-03-25T05:33:17;4.10;99.90
9497;DHT22;4786;51.270;4.456;2024-03-25T05:35:43;4.10;99.90
9497;DHT22;4786;51.270;4.456;2024-03-25T05:38:09;4.10;99.90
9497;DHT22;4786;51.270;4.456;2024-03-25T05:40:35;4.20;99.90
9497;DHT22;4786;51.270;4.456;2024-03-25T05:43:00;4.30;99.90
9497;DHT22;4786;51.270;4.456;2024-03-25T05:45:26;4.20;99.90
9497;DHT22;4786;51.270;4.456;2024-03-25T05:47:51;4.30;99.90
9497;DHT22;4786;51.270;4.456;2024-03-25T05:50:17;4.40;99.90
9497;DHT22;4786;51.270;4.456;2024-03-25T05:52:43;4.50;99.90
9497;DHT22;4786;51.270;4.456;2024-03-25T05:55:09;4.50;99.90
9497;DHT22;4786;51.270;4.456;2024-03-25T05:57:37;4.60;99.90
9497;DHT22;4786;51.270;4.456;2024-03-25T06:00:03;4.60;99.90
9497;DHT22;4786;51.270;4.456;2024-03-25T06:02:29;4.70;99.90
9497;DHT22;4786;51.270;4.456;2024-03-25T06:04:55;4.80;99.90
9497;DHT22;4786;51.270;4.456;2024-03-25T06:07:22;4.90;99.90
9497;DHT22;4786;51.270;4.456;2024-03-25T06:09:48;4.90;99.90
9497;DHT22;4786;51.270;4.456;2024-03-25T06:12:13;4.90;99.90
9497;DHT22;4786;51.270;4.456;2024-03-25T06:14:39;4.90;99.90
9497;DHT22;4786;51.270;4.456;2024-03-25T06:17:05;5.00;99.90
9497;DHT22;4786;51.270;4.456;2024-03-25T06:19:30;5.00;99.90
9497;DHT22;4786;51.270;4.456;2024-03-25T06:21:56;5.10;99.90
9497;DHT22;4786;51.270;4.456;2024-03-25T06:24:22;5.20;99.90
9497;DHT22;4786;51.270;4.456;2024-03-25T06:26:48;5.20;99.90
9497;DHT22;4786;51.270;4.456;2024-03-25T06:29:13;5.30;99.90
9497;DHT22;4786;51.270;4.456;2024-03-25T06:31:39;5.50;99.90
9497;DHT22;4786;51.270;4.456;2024-03-25T06:34:23;5.50;99.90
9497;DHT22;4786;51.270;4.456;2024-03-25T06:36:49;5.70;99.90
9497;DHT22;4786;51.270;4.456;2024-03-25T06:39:15;5.80;99.90
9497;DHT22;4786;51.270;4.456;2024-03-25T06:41:40;6.00;99.90
9497;DHT22;4786;51.270;4.456;2024-03-25T06:44:06;6.10;99.90
9497;DHT22;4786;51.270;4.456;2024-03-25T06:46:32;6.20;99.90
9497;DHT22;4786;51.270;4.456;2024-03-25T06:48:58;6.30;99.90
9497;DHT22;4786;51.270;4.456;2024-03-25T06:51:24;6.40;99.90
9497;DHT22;4786;51.270;4.456;2024-03-25T06:53:49;6.50;99.90
9497;DHT22;4786;51.270;4.456;2024-03-25T06:56:16;6.60;99.90
9497;DHT22;4786;51.270;4.456;2024-03-25T06:58:42;6.80;99.90
9497;DHT22;4786;51.270;4.456;2024-03-25T07:01:09;6.80;99.90
9497;DHT22;4786;51.270;4.456;2024-03-25T07:03:37;6.90;99.90
9497;DHT22;4786;51.270;4.456;2024-03-25T07:06:03;6.90;99.90
9497;DHT22;4786;51.270;4.456;2024-03-25T07:08:29;6.90;99.90
9497;DHT22;4786;51.270;4.456;2024-03-25T07:10:58;7.00;99.90
9497;DHT22;4786;51.270;4.456;2024-03-25T07:13:24;7.10;99.90
9497;DHT22;4786;51.270;4.456;2024-03-25T07:15:50;7.10;99.90
9497;DHT22;4786;51.270;4.456;2024-03-25T07:18:16;7.10;99.90
9497;DHT22;4786;51.270;4.456;2024-03-25T07:20:43;7.30;99.90
9497;DHT22;4786;51.270;4.456;2024-03-25T07:23:09;7.40;99.90
9497;DHT22;4786;51.270;4.456;2024-03-25T07:25:35;7.60;99.90
9497;DHT22;4786;51.270;4.456;2024-03-25T07:28:02;7.70;99.90
9497;DHT22;4786;51.270;4.456;2024-03-25T07:30:27;7.80;99.90
9497;DHT22;4786;51.270;4.456;2024-03-25T07:32:55;7.90;99.90
9497;DHT22;4786;51.270;4.456;2024-03-25T07:35:21;7.90;99.90
9497;DHT22;4786;51.270;4.456;2024-03-25T07:37:46;8.10;99.90
9497;DHT22;4786;51.270;4.456;2024-03-25T07:40:12;8.30;99.90
9497;DHT22;4786;51.270;4.456;2024-03-25T07:42:39;8.50;99.90
9497;DHT22;4786;51.270;4.456;2024-03-25T07:45:05;8.80;99.90
9497;DHT22;4786;51.270;4.456;2024-03-25T07:47:32;9.00;99.90
9497;DHT22;4786;51.270;4.456;2024-03-25T07:49:58;9.30;99.90
9497;DHT22;4786;51.270;4.456;2024-03-25T07:52:27;9.40;99.90
9497;DHT22;4786;51.270;4.456;2024-03-25T07:54:53;9.50;99.90
9497;DHT22;4786;51.270;4.456;2024-03-25T07:57:19;9.70;99.90
9497;DHT22;4786;51.270;4.456;2024-03-25T07:59:47;9.70;99.90
9497;DHT22;4786;51.270;4.456;2024-03-25T08:02:13;9.80;99.90
9497;DHT22;4786;51.270;4.456;2024-03-25T08:04:39;9.60;99.90
9497;DHT22;4786;51.270;4.456;2024-03-25T08:07:05;9.70;99.90
9497;DHT22;4786;51.270;4.456;2024-03-25T08:09:30;9.60;99.90
9497;DHT22;4786;51.270;4.456;2024-03-25T08:11:56;9.50;99.90
9497;DHT22;4786;51.270;4.456;2024-03-25T08:14:22;9.40;99.90
9497;DHT22;4786;51.270;4.456;2024-03-25T08:16:48;9.20;99.90
9497;DHT22;4786;51.270;4.456;2024-03-25T08:19:14;9.20;99.90
9497;DHT22;4786;51.270;4.456;2024-03-25T08:21:40;9.10;99.90
9497;DHT22;4786;51.270;4.456;2024-03-25T08:24:06;9.10;99.90
9497;DHT22;4786;51.270;4.456;2024-03-25T08:26:31;9.00;99.90
9497;DHT22;4786;51.270;4.456;2024-03-25T08:28:57;9.10;99.90
9497;DHT22;4786;51.270;4.456;2024-03-25T08:31:23;9.10;99.90
9497;DHT22;4786;51.270;4.456;2024-03-25T08:33:48;9.10;99.90
9497;DHT22;4786;51.270;4.456;2024-03-25T08:36:14;9.20;99.90
9497;DHT22;4786;51.270;4.456;2024-03-25T08:38:40;9.30;99.90
9497;DHT22;4786;51.270;4.456;2024-03-25T08:41:06;9.30;99.90
9497;DHT22;4786;51.270;4.456;2024-03-25T08:43:31;9.50;99.90
9497;DHT22;4786;51.270;4.456;2024-03-25T08:45:57;9.60;99.90
9497;DHT22;4786;51.270;4.456;2024-03-25T08:48:23;9.70;99.90
9497;DHT22;4786;51.270;4.456;2024-03-25T08:50:49;9.70;99.90
9497;DHT22;4786;51.270;4.456;2024-03-25T08:53:15;9.80;99.90
9497;DHT22;4786;51.270;4.456;2024-03-25T08:55:45;9.90;99.90
9497;DHT22;4786;51.270;4.456;2024-03-25T08:58:15;10.10;99.90
9497;DHT22;4786;51.270;4.456;2024-03-25T09:00:42;10.20;99.90
9497;DHT22;4786;51.270;4.456;2024-03-25T09:03:08;10.40;99.90
9497;DHT22;4786;51.270;4.456;2024-03-25T09:05:34;10.60;99.90
9497;DHT22;4786;51.270;4.456;2024-03-25T09:08:00;10.80;99.90
9497;DHT22;4786;51.270;4.456;2024-03-25T09:10:26;10.90;99.90
9497;DHT22;4786;51.270;4.456;2024-03-25T09:13:10;11.00;99.90
9497;DHT22;4786;51.270;4.456;2024-03-25T09:15:36;11.20;99.90
9497;DHT22;4786;51.270;4.456;2024-03-25T09:18:02;11.30;99.90
9497;DHT22;4786;51.270;4.456;2024-03-25T09:20:28;11.50;99.90
9497;DHT22;4786;51.270;4.456;2024-03-25T09:22:53;11.70;99.90
9497;DHT22;4786;51.270;4.456;2024-03-25T09:25:19;11.90;99.90
9497;DHT22;4786;51.270;4.456;2024-03-25T09:27:49;12.00;99.90
9497;DHT22;4786;51.270;4.456;2024-03-25T09:30:15;12.10;99.90
9497;DHT22;4786;51.270;4.456;2024-03-25T09:32:41;12.20;99.90
9497;DHT22;4786;51.270;4.456;2024-03-25T09:35:10;12.40;99.90
9497;DHT22;4786;51.270;4.456;2024-03-25T09:37:36;12.60;99.90
9497;DHT22;4786;51.270;4.456;2024-03-25T09:40:02;12.80;99.90
9497;DHT22;4786;51.270;4.456;2024-03-25T09:42:42;13.00;99.90
9497;DHT22;4786;51.270;4.456;2024-03-25T09:45:08;13.20;99.90
9497;DHT22;4786;51.270;4.456;2024-03-25T09:47:35;13.40;99.90
9497;DHT22;4786;51.270;4.456;2024-03-25T09:50:04;13.30;99.90
9497;DHT22;4786;51.270;4.456;2024-03-25T09:52:31;13.30;99.90
9497;DHT22;4786;51.270;4.456;2024-03-25T09:54:57;13.40;99.90
9497;DHT22;4786;51.270;4.456;2024-03-25T09:57:22;13.70;99.90
9497;DHT22;4786;51.270;4.456;2024-03-25T09:59:49;13.90;99.90
9497;DHT22;4786;51.270;4.456;2024-03-25T10:02:14;13.90;99.90
9497;DHT22;4786;51.270;4.456;2024-03-25T10:04:48;13.90;99.90
9497;DHT22;4786;51.270;4.456;2024-03-25T10:07:22;13.80;99.90
9497;DHT22;4786;51.270;4.456;2024-03-25T10:09:51;14.00;99.90
9497;DHT22;4786;51.270;4.456;2024-03-25T10:12:17;14.20;99.90
9497;DHT22;4786;51.270;4.456;2024-03-25T10:14:43;14.40;99.90
9497;DHT22;4786;51.270;4.456;2024-03-25T10:17:08;14.50;99.90
9497;DHT22;4786;51.270;4.456;2024-03-25T10:19:35;14.50;99.90
9497;DHT22;4786;51.270;4.456;2024-03-25T10:22:02;14.50;99.90
9497;DHT22;4786;51.270;4.456;2024-03-25T10:24:39;14.60;99.90
9497;DHT22;4786;51.270;4.456;2024-03-25T10:27:05;14.50;99.90
9497;DHT22;4786;51.270;4.456;2024-03-25T10:29:31;14.50;99.90
9497;DHT22;4786;51.270;4.456;2024-03-25T10:32:01;14.50;99.90
9497;DHT22;4786;51.270;4.456;2024-03-25T10:34:27;14.40;99.90
9497;DHT22;4786;51.270;4.456;2024-03-25T10:36:56;14.50;99.90
9497;DHT22;4786;51.270;4.456;2024-03-25T10:39:26;14.60;99.90
9497;DHT22;4786;51.270;4.456;2024-03-25T10:41:59;14.70;99.90
9497;DHT22;4786;51.270;4.456;2024-03-25T10:44:30;14.70;99.90
9497;DHT22;4786;51.270;4.456;2024-03-25T10:47:01;14.80;99.90
9497;DHT22;4786;51.270;4.456;2024-03-25T10:49:48;14.60;99.90
9497;DHT22;4786;51.270;4.456;2024-03-25T10:52:14;14.70;99.90
9497;DHT22;4786;51.270;4.456;2024-03-25T10:54:42;14.80;99.90
9497;DHT22;4786;51.270;4.456;2024-03-25T10:57:09;14.90;99.90
9497;DHT22;4786;51.270;4.456;2024-03-25T10:59:37;14.90;99.90
9497;DHT22;4786;51.270;4.456;2024-03-25T11:02:07;14.80;99.90
9497;DHT22;4786;51.270;4.456;2024-03-25T11:04:33;14.80;99.90
9497;DHT22;4786;51.270;4.456;2024-03-25T11:07:15;15.00;99.90
9497;DHT22;4786;51.270;4.456;2024-03-25T11:09:42;15.20;99.90
9497;DHT22;4786;51.270;4.456;2024-03-25T11:12:11;15.10;99.90
9497;DHT22;4786;51.270;4.456;2024-03-25T11:14:38;15.10;99.90
9497;DHT22;4786;51.270;4.456;2024-03-25T11:17:14;15.00;99.90
9497;DHT22;4786;51.270;4.456;2024-03-25T11:19:41;15.10;99.90
9497;DHT22;4786;51.270;4.456;2024-03-25T11:22:10;15.30;99.90
9497;DHT22;4786;51.270;4.456;2024-03-25T11:24:36;15.40;99.90
9497;DHT22;4786;51.270;4.456;2024-03-25T11:27:06;15.40;99.90
9497;DHT22;4786;51.270;4.456;2024-03-25T11:29:33;15.50;99.90
9497;DHT22;4786;51.270;4.456;2024-03-25T11:32:07;15.60;99.90
9497;DHT22;4786;51.270;4.456;2024-03-25T11:34:35;15.70;99.90
9497;DHT22;4786;51.270;4.456;2024-03-25T11:37:00;15.70;99.90
9497;DHT22;4786;51.270;4.456;2024-03-25T11:39:26;15.90;99.90
9497;DHT22;4786;51.270;4.456;2024-03-25T11:41:54;15.80;99.90
9497;DHT22;4786;51.270;4.456;2024-03-25T11:44:19;15.80;99.90
9497;DHT22;4786;51.270;4.456;2024-03-25T11:46:47;15.80;99.90
9497;DHT22;4786;51.270;4.456;2024-03-25T11:49:14;15.80;99.90
9497;DHT22;4786;51.270;4.456;2024-03-25T11:51:42;15.80;99.90
9497;DHT22;4786;51.270;4.456;2024-03-25T11:54:10;15.70;99.90
9497;DHT22;4786;51.270;4.456;2024-03-25T11:56:37;15.40;99.90
9497;DHT22;4786;51.270;4.456;2024-03-25T11:59:05;15.30;99.90
9497;DHT22;4786;51.270;4.456;2024-03-25T12:01:32;15.20;99.90
9497;DHT22;4786;51.270;4.456;2024-03-25T12:04:09;15.00;99.90
9497;DHT22;4786;51.270;4.456;2024-03-25T12:06:35;15.10;99.90
9497;DHT22;4786;51.270;4.456;2024-03-25T12:09:00;15.00;97.50
9497;DHT22;4786;51.270;4.456;2024-03-25T12:11:45;14.90;99.90
9497;DHT22;4786;51.270;4.456;2024-03-25T12:14:11;15.00;99.90
9497;DHT22;4786;51.270;4.456;2024-03-25T12:16:37;15.00;99.90
9497;DHT22;4786;51.270;4.456;2024-03-25T12:19:02;14.90;99.90
9497;DHT22;4786;51.270;4.456;2024-03-25T12:21:28;14.60;99.90
9497;DHT22;4786;51.270;4.456;2024-03-25T12:23:54;14.60;99.90
9497;DHT22;4786;51.270;4.456;2024-03-25T12:26:20;14.50;99.90
9497;DHT22;4786;51.270;4.456;2024-03-25T12:28:45;14.50;99.90
9497;DHT22;4786;51.270;4.456;2024-03-25T12:31:11;14.40;99.90
9497;DHT22;4786;51.270;4.456;2024-03-25T12:33:41;14.50;99.90
9497;DHT22;4786;51.270;4.456;2024-03-25T12:36:06;14.40;99.90
9497;DHT22;4786;51.270;4.456;2024-03-25T12:38:32;14.40;99.90
9497;DHT22;4786;51.270;4.456;2024-03-25T12:41:08;14.70;99.90
9497;DHT22;4786;51.270;4.456;2024-03-25T12:43:41;14.90;99.90
9497;DHT22;4786;51.270;4.456;2024-03-25T12:46:07;15.30;99.90
9497;DHT22;4786;51.270;4.456;2024-03-25T12:48:34;15.20;99.90
9497;DHT22;4786;51.270;4.456;2024-03-25T12:51:00;15.20;97.70
9497;DHT22;4786;51.270;4.456;2024-03-25T12:53:26;15.10;98.60
9497;DHT22;4786;51.270;4.456;2024-03-25T12:55:52;15.10;99.90
9497;DHT22;4786;51.270;4.456;2024-03-25T12:58:18;15.00;99.90
9497;DHT22;4786;51.270;4.456;2024-03-25T13:00:44;15.10;99.90
9497;DHT22;4786;51.270;4.456;2024-03-25T13:03:10;15.30;99.90
9497;DHT22;4786;51.270;4.456;2024-03-25T13:05:36;15.40;99.90
9497;DHT22;4786;51.270;4.456;2024-03-25T13:08:02;15.60;99.90
9497;DHT22;4786;51.270;4.456;2024-03-25T13:10:29;15.70;99.90
9497;DHT22;4786;51.270;4.456;2024-03-25T13:12:55;15.60;99.90
9497;DHT22;4786;51.270;4.456;2024-03-25T13:15:21;15.60;99.50
9497;DHT22;4786;51.270;4.456;2024-03-25T13:17:47;15.40;99.90
9497;DHT22;4786;51.270;4.456;2024-03-25T13:20:13;15.30;99.90
9497;DHT22;4786;51.270;4.456;2024-03-25T13:22:39;15.10;99.90
9497;DHT22;4786;51.270;4.456;2024-03-25T13:25:06;15.00;99.90
9497;DHT22;4786;51.270;4.456;2024-03-25T13:27:31;14.90;99.90
9497;DHT22;4786;51.270;4.456;2024-03-25T13:29:58;15.00;99.90
9497;DHT22;4786;51.270;4.456;2024-03-25T13:32:23;14.90;99.90
9497;DHT22;4786;51.270;4.456;2024-03-25T13:34:49;14.90;99.90
9497;DHT22;4786;51.270;4.456;2024-03-25T13:37:15;15.00;99.90
9497;DHT22;4786;51.270;4.456;2024-03-25T13:39:41;15.10;99.90
9497;DHT22;4786;51.270;4.456;2024-03-25T13:42:07;15.00;99.90
9497;DHT22;4786;51.270;4.456;2024-03-25T13:44:33;15.10;99.90
9497;DHT22;4786;51.270;4.456;2024-03-25T13:46:58;15.10;99.90
9497;DHT22;4786;51.270;4.456;2024-03-25T13:49:24;15.20;99.90
9497;DHT22;4786;51.270;4.456;2024-03-25T13:51:58;15.40;99.90
9497;DHT22;4786;51.270;4.456;2024-03-25T13:54:24;15.40;99.90
9497;DHT22;4786;51.270;4.456;2024-03-25T13:56:51;15.60;99.90
9497;DHT22;4786;51.270;4.456;2024-03-25T13:59:16;15.70;99.90
9497;DHT22;4786;51.270;4.456;2024-03-25T14:01:42;15.60;99.30
9497;DHT22;4786;51.270;4.456;2024-03-25T14:04:08;15.60;99.30
9497;DHT22;4786;51.270;4.456;2024-03-25T14:06:33;15.50;98.00
9497;DHT22;4786;51.270;4.456;2024-03-25T14:09:03;15.50;99.90
9497;DHT22;4786;51.270;4.456;2024-03-25T14:11:31;15.30;98.40
9497;DHT22;4786;51.270;4.456;2024-03-25T14:13:57;15.00;98.00
9497;DHT22;4786;51.270;4.456;2024-03-25T14:16:23;14.80;97.90
9497;DHT22;4786;51.270;4.456;2024-03-25T14:18:48;14.60;98.70
9497;DHT22;4786;51.270;4.456;2024-03-25T14:21:14;14.70;99.90
9497;DHT22;4786;51.270;4.456;2024-03-25T14:23:40;14.70;99.90
9497;DHT22;4786;51.270;4.456;2024-03-25T14:26:18;14.80;98.60
9497;DHT22;4786;51.270;4.456;2024-03-25T14:28:43;14.90;97.60
9497;DHT22;4786;51.270;4.456;2024-03-25T14:31:09;15.00;98.20
9497;DHT22;4786;51.270;4.456;2024-03-25T14:33:34;15.20;98.00
9497;DHT22;4786;51.270;4.456;2024-03-25T14:36:00;15.20;97.80
9497;DHT22;4786;51.270;4.456;2024-03-25T14:38:26;15.20;96.90
9497;DHT22;4786;51.270;4.456;2024-03-25T14:40:51;14.90;96.60
9497;DHT22;4786;51.270;4.456;2024-03-25T14:43:18;14.80;96.90
9497;DHT22;4786;51.270;4.456;2024-03-25T14:45:45;14.60;98.50
9497;DHT22;4786;51.270;4.456;2024-03-25T14:48:11;14.50;97.00
9497;DHT22;4786;51.270;4.456;2024-03-25T14:50:37;14.40;97.20
9497;DHT22;4786;51.270;4.456;2024-03-25T14:53:03;14.40;96.80
9497;DHT22;4786;51.270;4.456;2024-03-25T14:55:29;14.40;98.80
9497;DHT22;4786;51.270;4.456;2024-03-25T14:57:55;14.50;97.70
9497;DHT22;4786;51.270;4.456;2024-03-25T15:00:21;14.60;97.30
9497;DHT22;4786;51.270;4.456;2024-03-25T15:02:50;14.60;98.80
9497;DHT22;4786;51.270;4.456;2024-03-25T15:05:15;14.60;98.60
9497;DHT22;4786;51.270;4.456;2024-03-25T15:07:41;14.70;96.90
9497;DHT22;4786;51.270;4.456;2024-03-25T15:10:07;14.50;95.80
9497;DHT22;4786;51.270;4.456;2024-03-25T15:12:33;14.50;96.60
9497;DHT22;4786;51.270;4.456;2024-03-25T15:14:58;14.50;97.80
9497;DHT22;4786;51.270;4.456;2024-03-25T15:17:24;14.50;94.80
9497;DHT22;4786;51.270;4.456;2024-03-25T15:19:50;14.50;95.20
9497;DHT22;4786;51.270;4.456;2024-03-25T15:22:16;14.30;95.70
9497;DHT22;4786;51.270;4.456;2024-03-25T15:24:41;14.40;96.30
9497;DHT22;4786;51.270;4.456;2024-03-25T15:27:08;14.30;94.50
9497;DHT22;4786;51.270;4.456;2024-03-25T15:29:33;14.30;94.50
9497;DHT22;4786;51.270;4.456;2024-03-25T15:31:59;14.20;95.70
9497;DHT22;4786;51.270;4.456;2024-03-25T15:34:24;14.20;95.20
9497;DHT22;4786;51.270;4.456;2024-03-25T15:36:50;14.20;94.70
9497;DHT22;4786;51.270;4.456;2024-03-25T15:39:18;14.20;95.50
9497;DHT22;4786;51.270;4.456;2024-03-25T15:41:43;14.20;95.80
9497;DHT22;4786;51.270;4.456;2024-03-25T15:44:09;14.10;94.00
9497;DHT22;4786;51.270;4.456;2024-03-25T15:46:35;14.00;95.30
9497;DHT22;4786;51.270;4.456;2024-03-25T15:49:00;14.10;95.70
9497;DHT22;4786;51.270;4.456;2024-03-25T15:51:26;14.00;95.70
9497;DHT22;4786;51.270;4.456;2024-03-25T15:53:52;14.00;94.40
9497;DHT22;4786;51.270;4.456;2024-03-25T15:56:17;13.90;95.20
9497;DHT22;4786;51.270;4.456;2024-03-25T15:58:43;13.80;94.20
9497;DHT22;4786;51.270;4.456;2024-03-25T16:01:08;13.80;96.00
9497;DHT22;4786;51.270;4.456;2024-03-25T16:03:34;13.80;97.00
9497;DHT22;4786;51.270;4.456;2024-03-25T16:06:00;13.70;95.80